sensor_id;sensor_type;location;lat;lon;timestamp;P1;durP1;ratioP1;P2;durP2;ratioP2
9942;SDS011;5010;45.080;7.634;2023-03-01T00:01:55;11.30;;;10.70;;
9942;SDS011;5010;45.080;7.634;2023-03-01T00:04:22;13.13;;;9.32;;
9942;SDS011;5010;45.080;7.634;2023-03-01T00:06:48;10.27;;;8.50;;
9942;SDS011;5010;45.080;7.634;2023-03-01T00:09:15;9.82;;;8.35;;
9942;SDS011;5010;45.080;7.634;2023-03-01T00:11:44;11.35;;;9.52;;
9942;SDS011;5010;45.080;7.634;2023-03-01T00:14:11;10.43;;;7.57;;
9942;SDS011;5010;45.080;7.634;2023-03-01T00:16:39;9.55;;;8.07;;
9942;SDS011;5010;45.080;7.634;2023-03-01T00:19:08;11.63;;;9.00;;
9942;SDS011;5010;45.080;7.634;2023-03-01T00:21:38;12.75;;;9.40;;
9942;SDS011;5010;45.080;7.634;2023-03-01T00:24:05;11.63;;;8.70;;
9942;SDS011;5010;45.080;7.634;2023-03-01T00:26:32;11.95;;;8.35;;
9942;SDS011;5010;45.080;7.634;2023-03-01T00:29:00;11.20;;;8.98;;
9942;SDS011;5010;45.080;7.634;2023-03-01T00:31:29;10.05;;;9.07;;
9942;SDS011;5010;45.080;7.634;2023-03-01T00:33:57;13.38;;;9.05;;
9942;SDS011;5010;45.080;7.634;2023-03-01T00:36:28;10.20;;;9.35;;
9942;SDS011;5010;45.080;7.634;2023-03-01T00:38:57;12.07;;;7.82;;
9942;SDS011;5010;45.080;7.634;2023-03-01T00:41:24;8.02;;;7.63;;
9942;SDS011;5010;45.080;7.634;2023-03-01T00:43:52;13.77;;;9.38;;
9942;SDS011;5010;45.080;7.634;2023-03-01T00:46:21;11.50;;;8.10;;
9942;SDS011;5010;45.080;7.634;2023-03-01T00:48:49;9.95;;;7.50;;
9942;SDS011;5010;45.080;7.634;2023-03-01T00:51:17;10.20;;;7.90;;
9942;SDS011;5010;45.080;7.634;2023-03-01T00:53:46;9.43;;;8.18;;
9942;SDS011;5010;45.080;7.634;2023-03-01T00:56:16;9.27;;;7.95;;
9942;SDS011;5010;45.080;7.634;2023-03-01T00:58:43;9.18;;;8.40;;
9942;SDS011;5010;45.080;7.634;2023-03-01T01:01:10;8.23;;;7.03;;
9942;SDS011;5010;45.080;7.634;2023-03-01T01:03:45;10.07;;;8.13;;
9942;SDS011;5010;45.080;7.634;2023-03-01T01:06:13;10.35;;;7.72;;
9942;SDS011;5010;45.080;7.634;2023-03-01T01:08:41;11.07;;;8.65;;
9942;SDS011;5010;45.080;7.634;2023-03-01T01:11:08;10.93;;;7.45;;
9942;SDS011;5010;45.080;7.634;2023-03-01T01:13:35;9.55;;;8.25;;
9942;SDS011;5010;45.080;7.634;2023-03-01T01:16:03;13.25;;;8.38;;
9942;SDS011;5010;45.080;7.634;2023-03-01T01:18:30;9.73;;;8.98;;
9942;SDS011;5010;45.080;7.634;2023-03-01T01:21:02;12.90;;;8.68;;
9942;SDS011;5010;45.080;7.634;2023-03-01T01:23:29;11.73;;;8.68;;
9942;SDS011;5010;45.080;7.634;2023-03-01T01:25:56;9.30;;;8.13;;
9942;SDS011;5010;45.080;7.634;2023-03-01T01:28:23;10.75;;;7.72;;
9942;SDS011;5010;45.080;7.634;2023-03-01T01:30:50;15.65;;;8.45;;
9942;SDS011;5010;45.080;7.634;2023-03-01T01:33:17;9.65;;;9.18;;
9942;SDS011;5010;45.080;7.634;2023-03-01T01:35:44;9.25;;;8.40;;
9942;SDS011;5010;45.080;7.634;2023-03-01T01:38:13;9.32;;;8.05;;
9942;SDS011;5010;45.080;7.634;2023-03-01T01:40:42;11.18;;;8.05;;
9942;SDS011;5010;45.080;7.634;2023-03-01T01:43:12;9.85;;;8.30;;
9942;SDS011;5010;45.080;7.634;2023-03-01T01:45:45;12.73;;;8.88;;
9942;SDS011;5010;45.080;7.634;2023-03-01T01:48:12;9.98;;;7.63;;
9942;SDS011;5010;45.080;7.634;2023-03-01T01:50:42;11.45;;;8.52;;
9942;SDS011;5010;45.080;7.634;2023-03-01T01:53:10;12.40;;;8.65;;
9942;SDS011;5010;45.080;7.634;2023-03-01T01:55:41;10.68;;;9.10;;
9942;SDS011;5010;45.080;7.634;2023-03-01T01:58:14;9.35;;;8.00;;
9942;SDS011;5010;45.080;7.634;2023-03-01T02:00:44;11.02;;;8.57;;
9942;SDS011;5010;45.080;7.634;2023-03-01T02:03:11;11.93;;;9.65;;
9942;SDS011;5010;45.080;7.634;2023-03-01T02:05:44;13.02;;;7.97;;
9942;SDS011;5010;45.080;7.634;2023-03-01T02:08:15;12.57;;;8.70;;
9942;SDS011;5010;45.080;7.634;2023-03-01T02:10:45;11.07;;;9.40;;
9942;SDS011;5010;45.080;7.634;2023-03-01T02:13:14;13.05;;;8.93;;
9942;SDS011;5010;45.080;7.634;2023-03-01T02:15:41;13.60;;;8.70;;
9942;SDS011;5010;45.080;7.634;2023-03-01T02:18:09;8.52;;;7.35;;
9942;SDS011;5010;45.080;7.634;2023-03-01T02:20:39;10.48;;;7.47;;
9942;SDS011;5010;45.080;7.634;2023-03-01T02:23:16;11.55;;;8.48;;
9942;SDS011;5010;45.080;7.634;2023-03-01T02:25:46;14.13;;;9.40;;
9942;SDS011;5010;45.080;7.634;2023-03-01T02:28:22;11.23;;;9.35;;
9942;SDS011;5010;45.080;7.634;2023-03-01T02:30:51;11.02;;;9.88;;
9942;SDS011;5010;45.080;7.634;2023-03-01T02:33:37;10.77;;;8.95;;
9942;SDS011;5010;45.080;7.634;2023-03-01T02:36:06;13.00;;;10.38;;
9942;SDS011;5010;45.080;7.634;2023-03-01T02:38:38;11.43;;;10.20;;
9942;SDS011;5010;45.080;7.634;2023-03-01T02:41:05;9.48;;;8.57;;
9942;SDS011;5010;45.080;7.634;2023-03-01T02:43:35;10.02;;;9.60;;
9942;SDS011;5010;45.080;7.634;2023-03-01T02:46:03;10.57;;;8.80;;
9942;SDS011;5010;45.080;7.634;2023-03-01T02:48:40;9.23;;;8.73;;
9942;SDS011;5010;45.080;7.634;2023-03-01T02:51:12;10.57;;;8.30;;
9942;SDS011;5010;45.080;7.634;2023-03-01T02:53:56;10.20;;;8.65;;
9942;SDS011;5010;45.080;7.634;2023-03-01T02:56:32;14.63;;;10.48;;
9942;SDS011;5010;45.080;7.634;2023-03-01T02:59:01;10.63;;;9.07;;
9942;SDS011;5010;45.080;7.634;2023-03-01T03:01:28;10.40;;;8.73;;
9942;SDS011;5010;45.080;7.634;2023-03-01T03:04:01;10.35;;;8.63;;
9942;SDS011;5010;45.080;7.634;2023-03-01T03:06:29;16.05;;;9.45;;
9942;SDS011;5010;45.080;7.634;2023-03-01T03:08:56;11.80;;;8.85;;
9942;SDS011;5010;45.080;7.634;2023-03-01T03:11:23;8.60;;;7.93;;
9942;SDS011;5010;45.080;7.634;2023-03-01T03:13:50;10.32;;;9.38;;
9942;SDS011;5010;45.080;7.634;2023-03-01T03:16:19;10.77;;;10.10;;
9942;SDS011;5010;45.080;7.634;2023-03-01T03:18:46;10.10;;;9.00;;
9942;SDS011;5010;45.080;7.634;2023-03-01T03:21:13;10.55;;;8.75;;
9942;SDS011;5010;45.080;7.634;2023-03-01T03:23:41;9.00;;;8.15;;
9942;SDS011;5010;45.080;7.634;2023-03-01T03:26:08;11.27;;;9.15;;
9942;SDS011;5010;45.080;7.634;2023-03-01T03:28:40;10.75;;;10.15;;
9942;SDS011;5010;45.080;7.634;2023-03-01T03:31:07;11.20;;;10.20;;
9942;SDS011;5010;45.080;7.634;2023-03-01T03:33:35;12.50;;;10.18;;
9942;SDS011;5010;45.080;7.634;2023-03-01T03:36:03;10.25;;;9.20;;
9942;SDS011;5010;45.080;7.634;2023-03-01T03:38:30;11.13;;;9.00;;
9942;SDS011;5010;45.080;7.634;2023-03-01T03:41:01;9.43;;;8.55;;
9942;SDS011;5010;45.080;7.634;2023-03-01T03:43:30;10.25;;;9.73;;
9942;SDS011;5010;45.080;7.634;2023-03-01T03:45:58;14.80;;;10.52;;
9942;SDS011;5010;45.080;7.634;2023-03-01T03:48:25;11.43;;;10.18;;
9942;SDS011;5010;45.080;7.634;2023-03-01T03:50:54;10.85;;;8.68;;
9942;SDS011;5010;45.080;7.634;2023-03-01T03:53:23;8.95;;;8.30;;
9942;SDS011;5010;45.080;7.634;2023-03-01T03:55:52;12.25;;;9.68;;
9942;SDS011;5010;45.080;7.634;2023-03-01T03:58:20;11.35;;;9.10;;
9942;SDS011;5010;45.080;7.634;2023-03-01T04:00:49;8.80;;;8.10;;
9942;SDS011;5010;45.080;7.634;2023-03-01T04:03:17;11.77;;;9.60;;
9942;SDS011;5010;45.080;7.634;2023-03-01T04:05:45;10.60;;;8.85;;
9942;SDS011;5010;45.080;7.634;2023-03-01T04:08:16;12.48;;;10.13;;
9942;SDS011;5010;45.080;7.634;2023-03-01T04:10:45;11.32;;;9.88;;
9942;SDS011;5010;45.080;7.634;2023-03-01T04:13:15;11.18;;;9.38;;
9942;SDS011;5010;45.080;7.634;2023-03-01T04:15:44;9.70;;;8.73;;
9942;SDS011;5010;45.080;7.634;2023-03-01T04:18:12;10.50;;;8.52;;
9942;SDS011;5010;45.080;7.634;2023-03-01T04:20:40;10.35;;;9.05;;
9942;SDS011;5010;45.080;7.634;2023-03-01T04:23:08;9.07;;;8.30;;
9942;SDS011;5010;45.080;7.634;2023-03-01T04:25:40;11.30;;;9.40;;
9942;SDS011;5010;45.080;7.634;2023-03-01T04:28:08;10.18;;;9.20;;
9942;SDS011;5010;45.080;7.634;2023-03-01T04:30:35;9.93;;;7.60;;
9942;SDS011;5010;45.080;7.634;2023-03-01T04:33:03;9.85;;;7.45;;
9942;SDS011;5010;45.080;7.634;2023-03-01T04:35:31;9.20;;;8.13;;
9942;SDS011;5010;45.080;7.634;2023-03-01T04:37:58;10.52;;;8.65;;
9942;SDS011;5010;45.080;7.634;2023-03-01T04:40:25;11.20;;;8.98;;
9942;SDS011;5010;45.080;7.634;2023-03-01T04:42:53;9.18;;;8.45;;
9942;SDS011;5010;45.080;7.634;2023-03-01T04:45:20;10.18;;;8.00;;
9942;SDS011;5010;45.080;7.634;2023-03-01T04:47:47;10.38;;;8.57;;
9942;SDS011;5010;45.080;7.634;2023-03-01T04:50:14;8.20;;;7.13;;
9942;SDS011;5010;45.080;7.634;2023-03-01T04:52:45;8.38;;;7.28;;
9942;SDS011;5010;45.080;7.634;2023-03-01T04:55:12;9.35;;;8.73;;
9942;SDS011;5010;45.080;7.634;2023-03-01T04:57:40;10.15;;;7.05;;
9942;SDS011;5010;45.080;7.634;2023-03-01T05:00:09;12.13;;;8.10;;
9942;SDS011;5010;45.080;7.634;2023-03-01T05:02:46;9.82;;;7.57;;
9942;SDS011;5010;45.080;7.634;2023-03-01T05:05:18;9.80;;;7.70;;
9942;SDS011;5010;45.080;7.634;2023-03-01T05:07:46;11.25;;;8.38;;
9942;SDS011;5010;45.080;7.634;2023-03-01T05:10:13;9.55;;;8.75;;
9942;SDS011;5010;45.080;7.634;2023-03-01T05:12:40;12.05;;;8.30;;
9942;SDS011;5010;45.080;7.634;2023-03-01T05:15:08;8.98;;;8.20;;
9942;SDS011;5010;45.080;7.634;2023-03-01T05:17:36;9.60;;;8.18;;
9942;SDS011;5010;45.080;7.634;2023-03-01T05:20:03;8.57;;;7.03;;
9942;SDS011;5010;45.080;7.634;2023-03-01T05:22:33;11.35;;;7.80;;
9942;SDS011;5010;45.080;7.634;2023-03-01T05:25:00;10.77;;;9.93;;
9942;SDS011;5010;45.080;7.634;2023-03-01T05:27:27;8.85;;;7.00;;
9942;SDS011;5010;45.080;7.634;2023-03-01T05:29:54;12.52;;;7.85;;
9942;SDS011;5010;45.080;7.634;2023-03-01T05:32:22;10.70;;;7.30;;
9942;SDS011;5010;45.080;7.634;2023-03-01T05:34:49;8.20;;;6.78;;
9942;SDS011;5010;45.080;7.634;2023-03-01T05:37:17;10.35;;;7.28;;
9942;SDS011;5010;45.080;7.634;2023-03-01T05:39:44;9.10;;;7.38;;
9942;SDS011;5010;45.080;7.634;2023-03-01T05:42:11;11.25;;;7.88;;
9942;SDS011;5010;45.080;7.634;2023-03-01T05:44:38;13.10;;;7.70;;
9942;SDS011;5010;45.080;7.634;2023-03-01T05:47:05;9.35;;;7.80;;
9942;SDS011;5010;45.080;7.634;2023-03-01T05:49:33;10.57;;;7.85;;
9942;SDS011;5010;45.080;7.634;2023-03-01T05:52:00;7.68;;;7.28;;
9942;SDS011;5010;45.080;7.634;2023-03-01T05:54:27;9.43;;;6.63;;
9942;SDS011;5010;45.080;7.634;2023-03-01T05:56:54;9.60;;;6.65;;
9942;SDS011;5010;45.080;7.634;2023-03-01T05:59:21;7.85;;;7.30;;
9942;SDS011;5010;45.080;7.634;2023-03-01T06:01:48;8.93;;;8.05;;
9942;SDS011;5010;45.080;7.634;2023-03-01T06:04:15;9.82;;;7.03;;
9942;SDS011;5010;45.080;7.634;2023-03-01T06:06:43;8.93;;;6.88;;
9942;SDS011;5010;45.080;7.634;2023-03-01T06:09:09;8.15;;;6.57;;
9942;SDS011;5010;45.080;7.634;2023-03-01T06:11:36;8.60;;;7.10;;
9942;SDS011;5010;45.080;7.634;2023-03-01T06:14:05;9.30;;;7.40;;
9942;SDS011;5010;45.080;7.634;2023-03-01T06:16:33;8.10;;;7.55;;
9942;SDS011;5010;45.080;7.634;2023-03-01T06:19:00;8.90;;;7.05;;
9942;SDS011;5010;45.080;7.634;2023-03-01T06:21:27;7.50;;;6.35;;
9942;SDS011;5010;45.080;7.634;2023-03-01T06:23:55;11.15;;;6.88;;
9942;SDS011;5010;45.080;7.634;2023-03-01T06:26:22;7.55;;;6.22;;
9942;SDS011;5010;45.080;7.634;2023-03-01T06:28:50;8.18;;;6.85;;
9942;SDS011;5010;45.080;7.634;2023-03-01T06:31:17;8.65;;;7.05;;
9942;SDS011;5010;45.080;7.634;2023-03-01T06:33:43;8.50;;;6.82;;
9942;SDS011;5010;45.080;7.634;2023-03-01T06:36:10;13.25;;;7.88;;
9942;SDS011;5010;45.080;7.634;2023-03-01T06:38:37;12.77;;;8.43;;
9942;SDS011;5010;45.080;7.634;2023-03-01T06:41:07;7.20;;;6.30;;
9942;SDS011;5010;45.080;7.634;2023-03-01T06:43:33;10.63;;;8.27;;
9942;SDS011;5010;45.080;7.634;2023-03-01T06:46:03;8.63;;;6.55;;
9942;SDS011;5010;45.080;7.634;2023-03-01T06:48:31;10.55;;;7.32;;
9942;SDS011;5010;45.080;7.634;2023-03-01T06:50:58;11.23;;;8.55;;
9942;SDS011;5010;45.080;7.634;2023-03-01T06:53:26;9.30;;;7.32;;
9942;SDS011;5010;45.080;7.634;2023-03-01T06:55:54;9.90;;;6.97;;
9942;SDS011;5010;45.080;7.634;2023-03-01T06:58:23;8.70;;;7.55;;
9942;SDS011;5010;45.080;7.634;2023-03-01T07:00:50;7.93;;;7.07;;
9942;SDS011;5010;45.080;7.634;2023-03-01T07:03:16;9.10;;;7.45;;
9942;SDS011;5010;45.080;7.634;2023-03-01T07:05:44;8.50;;;8.05;;
9942;SDS011;5010;45.080;7.634;2023-03-01T07:08:11;8.65;;;6.90;;
9942;SDS011;5010;45.080;7.634;2023-03-01T07:10:38;8.95;;;7.28;;
9942;SDS011;5010;45.080;7.634;2023-03-01T07:13:05;10.27;;;7.05;;
9942;SDS011;5010;45.080;7.634;2023-03-01T07:15:34;8.18;;;7.80;;
9942;SDS011;5010;45.080;7.634;2023-03-01T07:18:01;8.25;;;7.40;;
9942;SDS011;5010;45.080;7.634;2023-03-01T07:20:28;10.40;;;8.30;;
9942;SDS011;5010;45.080;7.634;2023-03-01T07:22:55;7.93;;;6.00;;
9942;SDS011;5010;45.080;7.634;2023-03-01T07:25:23;8.65;;;6.57;;
9942;SDS011;5010;45.080;7.634;2023-03-01T07:27:50;8.82;;;7.20;;
9942;SDS011;5010;45.080;7.634;2023-03-01T07:30:18;9.80;;;7.20;;
9942;SDS011;5010;45.080;7.634;2023-03-01T07:32:46;8.18;;;6.70;;
9942;SDS011;5010;45.080;7.634;2023-03-01T07:35:14;9.75;;;7.85;;
9942;SDS011;5010;45.080;7.634;2023-03-01T07:37:40;7.85;;;6.82;;
9942;SDS011;5010;45.080;7.634;2023-03-01T07:40:08;7.72;;;6.93;;
9942;SDS011;5010;45.080;7.634;2023-03-01T07:42:36;9.80;;;7.70;;
9942;SDS011;5010;45.080;7.634;2023-03-01T07:45:03;9.30;;;7.30;;
9942;SDS011;5010;45.080;7.634;2023-03-01T07:47:31;10.02;;;6.75;;
9942;SDS011;5010;45.080;7.634;2023-03-01T07:49:59;7.82;;;6.80;;
9942;SDS011;5010;45.080;7.634;2023-03-01T07:52:27;9.60;;;6.60;;
9942;SDS011;5010;45.080;7.634;2023-03-01T07:54:54;9.77;;;7.55;;
9942;SDS011;5010;45.080;7.634;2023-03-01T07:57:21;9.45;;;6.35;;
9942;SDS011;5010;45.080;7.634;2023-03-01T07:59:48;9.50;;;7.85;;
9942;SDS011;5010;45.080;7.634;2023-03-01T08:02:15;10.25;;;7.28;;
9942;SDS011;5010;45.080;7.634;2023-03-01T08:04:42;8.50;;;7.07;;
9942;SDS011;5010;45.080;7.634;2023-03-01T08:07:10;9.88;;;8.05;;
9942;SDS011;5010;45.080;7.634;2023-03-01T08:09:37;11.18;;;7.63;;
9942;SDS011;5010;45.080;7.634;2023-03-01T08:12:04;10.75;;;7.18;;
9942;SDS011;5010;45.080;7.634;2023-03-01T08:14:31;9.75;;;7.25;;
9942;SDS011;5010;45.080;7.634;2023-03-01T08:16:58;9.18;;;7.70;;
9942;SDS011;5010;45.080;7.634;2023-03-01T08:19:27;9.73;;;7.40;;
9942;SDS011;5010;45.080;7.634;2023-03-01T08:21:55;8.45;;;7.40;;
9942;SDS011;5010;45.080;7.634;2023-03-01T08:24:24;9.70;;;7.72;;
9942;SDS011;5010;45.080;7.634;2023-03-01T08:26:51;11.85;;;7.20;;
9942;SDS011;5010;45.080;7.634;2023-03-01T08:29:18;10.27;;;7.30;;
9942;SDS011;5010;45.080;7.634;2023-03-01T08:31:45;10.65;;;7.70;;
9942;SDS011;5010;45.080;7.634;2023-03-01T08:34:13;9.63;;;8.25;;
9942;SDS011;5010;45.080;7.634;2023-03-01T08:36:41;8.98;;;7.88;;
9942;SDS011;5010;45.080;7.634;2023-03-01T08:39:12;10.00;;;8.30;;
9942;SDS011;5010;45.080;7.634;2023-03-01T08:41:41;10.32;;;8.20;;
9942;SDS011;5010;45.080;7.634;2023-03-01T08:44:09;8.55;;;7.82;;
9942;SDS011;5010;45.080;7.634;2023-03-01T08:46:37;10.32;;;9.25;;
9942;SDS011;5010;45.080;7.634;2023-03-01T08:49:06;9.25;;;7.93;;
9942;SDS011;5010;45.080;7.634;2023-03-01T08:51:35;9.00;;;7.90;;
9942;SDS011;5010;45.080;7.634;2023-03-01T08:54:02;8.55;;;7.68;;
9942;SDS011;5010;45.080;7.634;2023-03-01T08:56:30;11.52;;;8.27;;
9942;SDS011;5010;45.080;7.634;2023-03-01T08:58:58;9.57;;;8.32;;
9942;SDS011;5010;45.080;7.634;2023-03-01T09:01:25;8.13;;;7.18;;
9942;SDS011;5010;45.080;7.634;2023-03-01T09:03:52;8.85;;;7.38;;
9942;SDS011;5010;45.080;7.634;2023-03-01T09:06:19;13.20;;;9.93;;
9942;SDS011;5010;45.080;7.634;2023-03-01T09:08:47;9.25;;;8.65;;
9942;SDS011;5010;45.080;7.634;2023-03-01T09:11:16;9.93;;;9.18;;
9942;SDS011;5010;45.080;7.634;2023-03-01T09:13:44;11.23;;;10.55;;
9942;SDS011;5010;45.080;7.634;2023-03-01T09:16:13;10.20;;;9.50;;
9942;SDS011;5010;45.080;7.634;2023-03-01T09:18:44;13.20;;;11.13;;
9942;SDS011;5010;45.080;7.634;2023-03-01T09:21:15;11.60;;;8.65;;
9942;SDS011;5010;45.080;7.634;2023-03-01T09:23:44;12.48;;;9.25;;
9942;SDS011;5010;45.080;7.634;2023-03-01T09:26:13;11.82;;;8.77;;
9942;SDS011;5010;45.080;7.634;2023-03-01T09:28:41;11.85;;;9.77;;
9942;SDS011;5010;45.080;7.634;2023-03-01T09:31:09;9.20;;;8.27;;
9942;SDS011;5010;45.080;7.634;2023-03-01T09:33:39;11.32;;;10.13;;
9942;SDS011;5010;45.080;7.634;2023-03-01T09:36:09;11.60;;;7.28;;
9942;SDS011;5010;45.080;7.634;2023-03-01T09:38:37;11.80;;;8.98;;
9942;SDS011;5010;45.080;7.634;2023-03-01T09:41:08;12.90;;;9.68;;
9942;SDS011;5010;45.080;7.634;2023-03-01T09:43:38;13.25;;;9.50;;
9942;SDS011;5010;45.080;7.634;2023-03-01T09:46:10;11.23;;;9.30;;
9942;SDS011;5010;45.080;7.634;2023-03-01T09:48:43;9.57;;;8.32;;
9942;SDS011;5010;45.080;7.634;2023-03-01T09:51:16;11.82;;;8.63;;
9942;SDS011;5010;45.080;7.634;2023-03-01T09:53:45;11.75;;;8.70;;
9942;SDS011;5010;45.080;7.634;2023-03-01T09:56:13;11.05;;;8.93;;
9942;SDS011;5010;45.080;7.634;2023-03-01T09:58:47;11.23;;;8.40;;
9942;SDS011;5010;45.080;7.634;2023-03-01T10:01:25;9.23;;;8.40;;
9942;SDS011;5010;45.080;7.634;2023-03-01T10:04:03;9.98;;;7.85;;
9942;SDS011;5010;45.080;7.634;2023-03-01T10:06:37;15.18;;;9.15;;
9942;SDS011;5010;45.080;7.634;2023-03-01T10:09:10;16.25;;;11.02;;
9942;SDS011;5010;45.080;7.634;2023-03-01T10:11:41;10.88;;;10.15;;
9942;SDS011;5010;45.080;7.634;2023-03-01T10:14:15;13.38;;;9.02;;
9942;SDS011;5010;45.080;7.634;2023-03-01T10:16:51;10.20;;;8.40;;
9942;SDS011;5010;45.080;7.634;2023-03-01T10:19:27;11.60;;;8.48;;
9942;SDS011;5010;45.080;7.634;2023-03-01T10:21:57;15.60;;;9.70;;
9942;SDS011;5010;45.080;7.634;2023-03-01T10:24:28;13.90;;;8.52;;
9942;SDS011;5010;45.080;7.634;2023-03-01T10:27:01;11.77;;;9.43;;
9942;SDS011;5010;45.080;7.634;2023-03-01T10:29:34;10.90;;;9.13;;
9942;SDS011;5010;45.080;7.634;2023-03-01T10:32:06;10.75;;;9.02;;
9942;SDS011;5010;45.080;7.634;2023-03-01T10:34:37;13.77;;;9.65;;
9942;SDS011;5010;45.080;7.634;2023-03-01T10:37:09;9.02;;;7.97;;
9942;SDS011;5010;45.080;7.634;2023-03-01T10:39:37;11.43;;;8.50;;
9942;SDS011;5010;45.080;7.634;2023-03-01T10:42:22;12.32;;;9.80;;
9942;SDS011;5010;45.080;7.634;2023-03-01T10:44:53;12.63;;;10.90;;
9942;SDS011;5010;45.080;7.634;2023-03-01T10:47:21;9.93;;;7.65;;
9942;SDS011;5010;45.080;7.634;2023-03-01T10:49:56;10.70;;;9.60;;
9942;SDS011;5010;45.080;7.634;2023-03-01T10:52:25;11.20;;;9.32;;
9942;SDS011;5010;45.080;7.634;2023-03-01T10:54:55;10.48;;;9.43;;
9942;SDS011;5010;45.080;7.634;2023-03-01T10:57:31;12.32;;;8.18;;
9942;SDS011;5010;45.080;7.634;2023-03-01T11:03:01;11.63;;;7.53;;
9942;SDS011;5010;45.080;7.634;2023-03-01T11:05:37;10.00;;;8.80;;
9942;SDS011;5010;45.080;7.634;2023-03-01T11:08:26;11.63;;;8.30;;
9942;SDS011;5010;45.080;7.634;2023-03-01T11:13:51;10.60;;;8.18;;
9942;SDS011;5010;45.080;7.634;2023-03-01T11:16:23;11.38;;;8.10;;
9942;SDS011;5010;45.080;7.634;2023-03-01T11:18:56;8.68;;;7.15;;
9942;SDS011;5010;45.080;7.634;2023-03-01T11:21:26;9.23;;;8.00;;
9942;SDS011;5010;45.080;7.634;2023-03-01T11:23:58;9.68;;;8.18;;
9942;SDS011;5010;45.080;7.634;2023-03-01T11:26:28;10.57;;;8.40;;
9942;SDS011;5010;45.080;7.634;2023-03-01T11:28:58;10.07;;;8.07;;
9942;SDS011;5010;45.080;7.634;2023-03-01T11:31:30;10.18;;;8.20;;
9942;SDS011;5010;45.080;7.634;2023-03-01T11:33:59;13.48;;;9.10;;
9942;SDS011;5010;45.080;7.634;2023-03-01T11:36:34;8.50;;;6.82;;
9942;SDS011;5010;45.080;7.634;2023-03-01T11:39:11;9.52;;;7.10;;
9942;SDS011;5010;45.080;7.634;2023-03-01T11:41:43;8.85;;;7.72;;
9942;SDS011;5010;45.080;7.634;2023-03-01T11:44:18;10.38;;;7.90;;
9942;SDS011;5010;45.080;7.634;2023-03-01T11:46:52;8.85;;;7.40;;
9942;SDS011;5010;45.080;7.634;2023-03-01T11:52:40;11.93;;;8.10;;
9942;SDS011;5010;45.080;7.634;2023-03-01T11:55:17;9.20;;;7.20;;
9942;SDS011;5010;45.080;7.634;2023-03-01T11:58:05;9.68;;;7.93;;
9942;SDS011;5010;45.080;7.634;2023-03-01T12:03:43;9.88;;;7.43;;
9942;SDS011;5010;45.080;7.634;2023-03-01T12:09:18;9.65;;;6.30;;
9942;SDS011;5010;45.080;7.634;2023-03-01T12:15:05;11.23;;;8.85;;
9942;SDS011;5010;45.080;7.634;2023-03-01T12:21:00;8.95;;;5.95;;
9942;SDS011;5010;45.080;7.634;2023-03-01T12:23:52;8.40;;;5.60;;
9942;SDS011;5010;45.080;7.634;2023-03-01T12:26:45;9.60;;;6.88;;
9942;SDS011;5010;45.080;7.634;2023-03-01T12:29:32;10.90;;;7.10;;
9942;SDS011;5010;45.080;7.634;2023-03-01T12:32:07;10.13;;;7.40;;
9942;SDS011;5010;45.080;7.634;2023-03-01T12:34:49;10.07;;;7.15;;
9942;SDS011;5010;45.080;7.634;2023-03-01T12:37:28;8.50;;;6.20;;
9942;SDS011;5010;45.080;7.634;2023-03-01T12:40:04;10.57;;;7.65;;
9942;SDS011;5010;45.080;7.634;2023-03-01T12:42:46;11.10;;;7.18;;
9942;SDS011;5010;45.080;7.634;2023-03-01T12:45:30;8.48;;;6.80;;
9942;SDS011;5010;45.080;7.634;2023-03-01T12:48:17;8.45;;;6.90;;
9942;SDS011;5010;45.080;7.634;2023-03-01T12:50:55;9.38;;;7.13;;
9942;SDS011;5010;45.080;7.634;2023-03-01T12:53:28;10.88;;;8.23;;
9942;SDS011;5010;45.080;7.634;2023-03-01T12:55:58;8.15;;;6.95;;
9942;SDS011;5010;45.080;7.634;2023-03-01T12:58:30;9.20;;;6.80;;
9942;SDS011;5010;45.080;7.634;2023-03-01T13:01:04;9.65;;;6.95;;
9942;SDS011;5010;45.080;7.634;2023-03-01T13:03:45;11.10;;;7.57;;
9942;SDS011;5010;45.080;7.634;2023-03-01T13:06:25;9.93;;;6.38;;
9942;SDS011;5010;45.080;7.634;2023-03-01T13:09:04;9.25;;;7.65;;
9942;SDS011;5010;45.080;7.634;2023-03-01T13:11:40;11.10;;;8.60;;
9942;SDS011;5010;45.080;7.634;2023-03-01T13:17:02;9.40;;;7.28;;
9942;SDS011;5010;45.080;7.634;2023-03-01T13:19:29;9.90;;;7.60;;
9942;SDS011;5010;45.080;7.634;2023-03-01T13:21:57;11.57;;;8.27;;
9942;SDS011;5010;45.080;7.634;2023-03-01T13:24:28;14.32;;;8.15;;
9942;SDS011;5010;45.080;7.634;2023-03-01T13:27:11;11.73;;;8.10;;
9942;SDS011;5010;45.080;7.634;2023-03-01T13:29:51;10.13;;;7.95;;
9942;SDS011;5010;45.080;7.634;2023-03-01T13:32:20;9.77;;;7.97;;
9942;SDS011;5010;45.080;7.634;2023-03-01T13:34:56;9.48;;;7.72;;
9942;SDS011;5010;45.080;7.634;2023-03-01T13:37:25;10.35;;;8.30;;
9942;SDS011;5010;45.080;7.634;2023-03-01T13:39:58;8.25;;;7.05;;
9942;SDS011;5010;45.080;7.634;2023-03-01T13:42:37;10.80;;;7.85;;
9942;SDS011;5010;45.080;7.634;2023-03-01T13:47:54;11.07;;;8.25;;
9942;SDS011;5010;45.080;7.634;2023-03-01T13:50:24;10.30;;;7.80;;
9942;SDS011;5010;45.080;7.634;2023-03-01T13:52:55;9.32;;;6.82;;
9942;SDS011;5010;45.080;7.634;2023-03-01T13:55:26;8.40;;;6.38;;
9942;SDS011;5010;45.080;7.634;2023-03-01T13:58:01;9.70;;;7.25;;
9942;SDS011;5010;45.080;7.634;2023-03-01T14:00:34;11.40;;;6.85;;
9942;SDS011;5010;45.080;7.634;2023-03-01T14:03:04;9.20;;;6.78;;
9942;SDS011;5010;45.080;7.634;2023-03-01T14:05:40;9.05;;;6.65;;
9942;SDS011;5010;45.080;7.634;2023-03-01T14:08:19;10.60;;;6.80;;
9942;SDS011;5010;45.080;7.634;2023-03-01T14:10:52;8.38;;;6.65;;
9942;SDS011;5010;45.080;7.634;2023-03-01T14:13:31;7.15;;;5.72;;
9942;SDS011;5010;45.080;7.634;2023-03-01T14:16:16;10.82;;;6.25;;
9942;SDS011;5010;45.080;7.634;2023-03-01T14:18:53;10.93;;;7.53;;
9942;SDS011;5010;45.080;7.634;2023-03-01T14:21:30;8.00;;;6.20;;
9942;SDS011;5010;45.080;7.634;2023-03-01T14:23:57;8.73;;;6.60;;
9942;SDS011;5010;45.080;7.634;2023-03-01T14:26:24;13.77;;;6.55;;
9942;SDS011;5010;45.080;7.634;2023-03-01T14:28:51;12.52;;;5.90;;
9942;SDS011;5010;45.080;7.634;2023-03-01T14:31:29;10.40;;;7.65;;
9942;SDS011;5010;45.080;7.634;2023-03-01T14:34:00;9.18;;;6.80;;
9942;SDS011;5010;45.080;7.634;2023-03-01T14:36:27;9.27;;;6.10;;
9942;SDS011;5010;45.080;7.634;2023-03-01T14:38:55;9.20;;;6.75;;
9942;SDS011;5010;45.080;7.634;2023-03-01T14:41:30;8.90;;;6.43;;
9942;SDS011;5010;45.080;7.634;2023-03-01T14:44:00;12.60;;;8.40;;
9942;SDS011;5010;45.080;7.634;2023-03-01T14:46:32;11.43;;;7.03;;
9942;SDS011;5010;45.080;7.634;2023-03-01T14:49:02;9.98;;;7.88;;
9942;SDS011;5010;45.080;7.634;2023-03-01T14:51:34;10.98;;;7.38;;
9942;SDS011;5010;45.080;7.634;2023-03-01T14:54:03;8.52;;;6.32;;
9942;SDS011;5010;45.080;7.634;2023-03-01T14:56:43;9.48;;;6.63;;
9942;SDS011;5010;45.080;7.634;2023-03-01T14:59:10;9.70;;;7.60;;
9942;SDS011;5010;45.080;7.634;2023-03-01T15:01:39;10.85;;;7.30;;
9942;SDS011;5010;45.080;7.634;2023-03-01T15:04:08;8.88;;;6.30;;
9942;SDS011;5010;45.080;7.634;2023-03-01T15:06:38;7.13;;;5.53;;
9942;SDS011;5010;45.080;7.634;2023-03-01T15:09:05;8.23;;;5.45;;
9942;SDS011;5010;45.080;7.634;2023-03-01T15:11:33;12.82;;;7.07;;
9942;SDS011;5010;45.080;7.634;2023-03-01T15:14:01;8.18;;;6.38;;
9942;SDS011;5010;45.080;7.634;2023-03-01T15:16:54;10.75;;;7.82;;
9942;SDS011;5010;45.080;7.634;2023-03-01T15:19:21;9.27;;;7.53;;
9942;SDS011;5010;45.080;7.634;2023-03-01T15:21:53;8.13;;;7.05;;
9942;SDS011;5010;45.080;7.634;2023-03-01T15:24:23;10.13;;;7.18;;
9942;SDS011;5010;45.080;7.634;2023-03-01T15:26:53;9.55;;;6.75;;
9942;SDS011;5010;45.080;7.634;2023-03-01T15:29:23;9.05;;;6.80;;
9942;SDS011;5010;45.080;7.634;2023-03-01T15:31:56;9.48;;;7.13;;
9942;SDS011;5010;45.080;7.634;2023-03-01T15:34:25;9.07;;;6.90;;
9942;SDS011;5010;45.080;7.634;2023-03-01T15:36:54;8.30;;;6.60;;
9942;SDS011;5010;45.080;7.634;2023-03-01T15:39:34;7.93;;;5.30;;
9942;SDS011;5010;45.080;7.634;2023-03-01T15:42:08;9.30;;;6.13;;
9942;SDS011;5010;45.080;7.634;2023-03-01T15:44:37;10.25;;;7.63;;
9942;SDS011;5010;45.080;7.634;2023-03-01T15:47:20;9.20;;;7.13;;
9942;SDS011;5010;45.080;7.634;2023-03-01T15:49:50;10.48;;;7.70;;
9942;SDS011;5010;45.080;7.634;2023-03-01T15:52:20;10.23;;;6.88;;
9942;SDS011;5010;45.080;7.634;2023-03-01T15:54:53;9.55;;;6.32;;